Tiempo atmosférico en la estación meteorológica de Madrid, El Goloso, Madrid (740 m.)



Fecha
DESCASC
Temp. máxima en grados centígrados (hora)
DESCASC
Temp. mínima en grados centígrados (hora)
DESCASC
Temp. media en grados centígrados
DESCASC
Racha de viento máxima en m/sg (hora)
DESCASC
Velocidad máxima media en intervalos de 10 minutos(hora)
DESCASC
Precipitaciones diarias en mm
DESCASC
Precipitaciones de 00:00 a 06:00 en mm
DESCASC
Precipitaciones de 06:00 a 12:00 en mm
DESCASC
Precipitaciones de 12:00 a 18:00 en mm
DESCASC
Precipitaciones de 18:00 a 24:00 en mm
DESCASC
17-10-2019 14.7 (18:00) 6.9 (05:50) 10.8 3.61 (15:20) 1.11 (13:00) 1 0 0.8 0 0.2
16-10-2019 17.2 (17:30) 5.4 (07:50) 11.3 5.56 (13:40) 1.67 (16:10) 0 0 0 0 0
15-10-2019 15.4 (15:00) 5.9 (08:40) 10.6 5.28 (02:00) 1.94 (13:10) 0 0 0 0 0
14-10-2019 17.8 (16:40) 8.3 (23:30) 13 9.72 (18:20) 2.22 (18:20) 2 0 0 0 2
13-10-2019 21.8 (18:10) 11.3 (00:00) 16.5 5.83 (00:10) 2.5 (00:20) 0 0 0 0 0
12-10-2019 24.5 (17:30) 14.7 (00:00) 19.6 11.94 (20:50) 2.78 (20:40) 9.2 0 0 0 9.2
11-10-2019 24.7 (18:20) 13 (00:00) 18.9 4.72 (15:40) 1.94 (12:50) 0 0 0 0 0
10-10-2019 23.4 (18:00) 12.1 (00:00) 17.8 5.56 (00:40) 2.78 (00:40) 0 0 0 0 0
09-10-2019 26.6 (18:30) 13.5 (00:00) 20.1 5.83 (23:59) 2.22 (16:50) 0 0 0 0 0
08-10-2019 27.1 (18:10) 12.6 (00:00) 19.9 6.67 (16:00) 2.5 (16:00) 0 0 0 0 0
07-10-2019 26.2 (18:10) 11 (00:00) 18.6 4.72 (15:50) 1.94 (16:00) 0 0 0 0 0
06-10-2019 26.1 (18:30) 10.5 (00:00) 18.3 4.72 (18:50) 2.22 (21:40) 0 0 0 0 0
05-10-2019 25.3 (18:20) 10.9 (00:00) 18.1 5.28 (17:00) 2.5 (15:20) 0 0 0 0 0
04-10-2019 25.8 (17:20) 9.7 (00:00) 17.7 5.56 (13:50) 2.22 (17:30) 0 0 0 0 0
03-10-2019 24.1 (18:20) 8.7 (00:00) 16.4 4.72 (15:40) 2.22 (16:50) 0 0 0 0 0
02-10-2019 21.4 (17:30) 9.6 (00:00) 15.5 11.11 (01:30) 3.89 (01:20) 0 0 0 0 0
01-10-2019 25.2 (15:30) 9.4 (00:00) 17.3 10.56 (23:20) 3.89 (17:10) 0 0 0 0 0
30-09-2019 27.6 (17:40) 10 (00:00) 18.8 6.39 (15:10) 2.5 (15:10) 0 0 0 0 0
29-09-2019 27.8 (16:10) 10.2 (00:00) 19 7.5 (16:10) 2.22 (15:30) 0 0 0 0 0
28-09-2019 26.3 (18:00) 10.7 (00:00) 18.5 6.39 (18:00) 2.5 (18:00) 0 0 0 0 0
27-09-2019 26.9 (17:10) 12.3 (00:00) 19.6 6.11 (17:50) 2.5 (16:50) 0 0 0 0 0
26-09-2019 25.5 (17:30) 12 (00:00) 18.8 5.28 (18:00) 2.5 (18:20) 0 0 0 0 0
25-09-2019 22.5 (18:00) 11.8 (00:00) 17.2 4.44 (16:30) 1.94 (15:20) 0 0 0 0 0
24-09-2019 25.3 (17:10) 10 (00:00) 17.6 6.94 (15:00) 2.5 (14:40) 0 0 0 0 0
23-09-2019 21.9 (18:20) 9.6 (00:00) 15.8 6.67 (17:00) 2.22 (14:10) 0 0 0 0 0
22-09-2019 21.2 (17:40) 12.9 (00:00) 17.1 8.33 (17:30) 3.33 (19:30) 5 0.8 4.2 0 0
21-09-2019 19.2 (16:50) 14 (00:00) 16.6 4.44 (13:20) 1.67 (00:40) 4.2 3.8 0 0.2 0.2
20-09-2019 24.1 (17:50) 15.9 (00:00) 20 12.5 (21:30) 4.72 (21:30) 8.8 0 0 0 8.8

Gráficas

Temp. máximas Temp. mínimas Temp. medias Precipitaciones Rachas de viento máximas Velocidades máximas media en intervalos de 10 minutos

Datos horarios

Fecha y hora oficial Temperatura (ºC) Velocidad del viento (km/h) Dirección del viento Racha (km/h) Dirección de racha Precipitación (mm) Presión (hPa) Tendencia (hPa) Humedad (%)
2019-10-19 23:00:00 12.2 5 Sur 26 Sur 2.6 -- -- 94
2019-10-19 22:00:00 12.8 3 Sur 13 Noroeste 6.4 -- -- 93
2019-10-19 21:00:00 14 4 Sudeste 8 Sudeste 0 -- -- 83
2019-10-19 20:00:00 14.4 2 Noroeste 4 Noroeste 0 -- -- 79
2019-10-19 19:00:00 15.3 3 Oeste 17 Sudoeste 0 -- -- 75
2019-10-19 18:00:00 15.2 6 Sudoeste 21 Sudoeste 0 -- -- 74
2019-10-19 17:00:00 15.4 7 Sudoeste 25 Sudoeste 0 -- -- 66
2019-10-19 16:00:00 15.3 7 Sudoeste 27 Sudoeste 0 -- -- 65
2019-10-19 15:00:00 15.4 3 Sudoeste 17 Sudoeste 0 -- -- 66
2019-10-19 14:00:00 14.1 4 Sudoeste 17 Sur 0 -- -- 71
2019-10-19 13:00:00 12.8 5 Sudoeste 15 Sudoeste 0 -- -- 74
2019-10-19 12:00:00 11.7 3 Sudoeste 14 Sudoeste 0 -- -- 84
2019-10-19 11:00:00 11.2 2 Oeste 13 Sudoeste 0 -- -- 87
2019-10-19 10:00:00 10.6 0 Calma 10 Sur 0 -- -- 91
2019-10-19 09:00:00 8.8 0 Calma 5 Sudoeste 0 -- -- 93
2019-10-19 08:00:00 9.5 0 Calma 7 Sur 0 -- -- 88
2019-10-19 07:00:00 10.2 0 Calma 12 Sudoeste 0 -- -- 87
2019-10-19 06:00:00 10.6 0 Calma 6 Sur 0 -- -- 85
2019-10-19 05:00:00 11.6 0 Calma 10 Sudoeste 0 -- -- 82
2019-10-19 04:00:00 11.6 3 Oeste 16 Sudoeste 0 -- -- 81
2019-10-19 03:00:00 11.7 3 Oeste 10 Sudoeste 0 -- -- 86
2019-10-19 02:00:00 11.5 0 Calma 10 Sudoeste 0 -- -- 86
2019-10-19 01:00:00 12.5 2 Oeste 10 Sudoeste 0 -- -- 83
2019-10-19 00:00:00 12.6 2 Sudoeste 8 Sur 0 -- -- 87
2019-10-18 23:00:00 13.8 0 Calma 8 Oeste 0 -- -- 85
2019-10-18 22:00:00 14.6 0 Calma 9 Sur 0 -- -- 82
2019-10-18 21:00:00 15.5 0 Calma 7 Sudoeste 0 -- -- 79
2019-10-18 20:00:00 16.8 0 Calma 18 Sudoeste 0 -- -- 72
2019-10-18 19:00:00 17.8 3 Oeste 16 Oeste 0 -- -- 70
2019-10-18 18:00:00 18.1 5 Oeste 22 Sudoeste 0 -- -- 69
2019-10-18 17:00:00 18.3 5 Sudoeste 25 Sudoeste 0 -- -- 73
2019-10-18 16:00:00 18.2 6 Oeste 22 Sudoeste 0 -- -- 73
2019-10-18 15:00:00 18.1 5 Sudoeste 24 Sudoeste 0 -- -- 77
2019-10-18 14:00:00 16.9 3 Sudoeste 14 Sudoeste 0 -- -- 90
2019-10-18 13:00:00 16.4 3 Oeste 14 Sudoeste 0 -- -- 90
2019-10-18 12:00:00 15.7 2 Oeste 16 Sudoeste 0 -- -- 94
2019-10-18 11:00:00 15.1 3 Sudoeste 18 Sudoeste 0 -- -- 97
2019-10-18 10:00:00 14.7 3 Oeste 18 Sudoeste 0 -- -- 98
2019-10-18 09:00:00 14.5 3 Oeste 16 Sudoeste 0 -- -- 98
2019-10-18 08:00:00 14.3 4 Oeste 14 Sudoeste 0 -- -- 98
2019-10-18 07:00:00 14.3 4 Oeste 14 Oeste 0 -- -- 98
2019-10-18 06:00:00 14.1 2 Oeste 9 Sudoeste 0 -- -- 98
2019-10-18 05:00:00 13.9 0 Calma 12 Sur 0.2 -- -- 97
2019-10-18 04:00:00 13.9 0 Calma 10 Sudoeste 0 -- -- 97
2019-10-18 03:00:00 14 2 Sudoeste 9 Sudoeste 0 -- -- 97
2019-10-18 02:00:00 13.9 0 Calma 5 Sudoeste 1 -- -- 96
2019-10-18 01:00:00 14 0 Calma 7 Sudoeste 1 -- -- 95
2019-10-18 00:00:00 14.3 0 Calma 8 Sudeste 0.2 -- -- 92
2019-10-17 23:00:00 14.4 0 Calma 6 Sudoeste 0 -- -- 89
2019-10-17 22:00:00 14.6 0 Calma 6 Sudoeste 0 -- -- 89
2019-10-17 21:00:00 14.7 0 Calma 6 Sudoeste 0 -- -- 86
2019-10-17 20:00:00 14.6 0 Calma 4 Sudeste 0 -- -- 84
2019-10-17 19:00:00 14.6 0 Calma 4 Sur 0 -- -- 83
2019-10-17 18:00:00 14.7 0 Calma 10 Sur 0 -- -- 83
2019-10-17 17:00:00 14.3 0 Calma 10 Sudoeste 0 -- -- 85
2019-10-17 16:00:00 13.7 0 Calma 13 Sudoeste 0 -- -- 84
2019-10-17 15:00:00 13.1 4 Sudoeste 11 Sur 0 -- -- 85
2019-10-17 14:00:00 12.6 2 Sudoeste 11 Sudoeste 0 -- -- 84
2019-10-17 13:00:00 12.2 4 Sur 8 Sur 0 -- -- 82
2019-10-17 12:00:00 11.7 3 Sur 8 Sur 0 -- -- 83
2019-10-17 11:00:00 10.6 2 Oeste 5 Sur 0.4 -- -- 88
2019-10-17 10:00:00 9.1 0 Calma 4 Sudeste 0.2 -- -- 85
2019-10-17 09:00:00 8.4 0 Calma 5 Nordeste 0 -- -- 81
2019-10-17 08:00:00 8.2 2 Sudeste 5 Nordeste 0.2 -- -- 84
2019-10-17 07:00:00 8.4 2 Este 4 Sudeste 0 -- -- 77
2019-10-17 06:00:00 7.2 0 Calma 4 Sur 0 -- -- 84
2019-10-17 05:00:00 7.4 0 Calma 2 Nordeste 0 -- -- 83
2019-10-17 04:00:00 7.2 0 Calma 3 Noroeste 0 -- -- 82
2019-10-17 03:00:00 8 0 Calma 3 Sudoeste 0 -- -- 80
2019-10-17 02:00:00 8.5 0 Calma 4 Sur 0 -- -- 76
2019-10-17 01:00:00 9.4 0 Calma 4 Sudoeste 0 -- -- 70
2019-10-17 00:00:00 10.1 0 Calma 4 Sudoeste 0 -- -- 64
2019-10-16 23:00:00 12.1 0 Calma 7 Sur 0 -- -- 56
2019-10-16 22:00:00 12.2 0 Calma 6 Sudoeste 0 -- -- 55
2019-10-16 21:00:00 12.7 0 Calma 7 Sudoeste 0 -- -- 52
2019-10-16 20:00:00 14.6 0 Calma 12 Sur 0 -- -- 49
2019-10-16 19:00:00 16.3 3 Sudoeste 16 Sur 0 -- -- 44
2019-10-16 18:00:00 17.2 3 Sudoeste 15 Sudoeste 0 -- -- 44
2019-10-16 17:00:00 17 4 Sudoeste 15 Sudoeste 0 -- -- 46
2019-10-16 16:00:00 16.5 5 Sudoeste 15 Sur 0 -- -- 52
2019-10-16 15:00:00 16 5 Sudoeste 14 Sudoeste 0 -- -- 52
2019-10-16 14:00:00 15.3 3 Sudoeste 20 Sudoeste 0 -- -- 57
2019-10-16 13:00:00 14.2 4 Sudoeste 12 Sudoeste 0 -- -- 61
2019-10-16 12:00:00 12.6 2 Sudeste 9 Este 0 -- -- 66
2019-10-16 11:00:00 11.2 3 Sudeste 9 Sudeste 0 -- -- 71
2019-10-16 10:00:00 8.7 4 Sudeste 6 Sudeste 0 -- -- 83
2019-10-16 09:00:00 6 0 Calma 4 Sudeste 0 -- -- 87
2019-10-16 08:00:00 5.4 0 Calma 3 Sudeste 0 -- -- 88
2019-10-16 07:00:00 5.8 0 Calma 3 Sudeste 0 -- -- 85
2019-10-16 06:00:00 6.8 0 Calma 3 Noroeste 0 -- -- 82
2019-10-16 05:00:00 7 0 Calma 0 Calma 0 -- -- 80
2019-10-16 04:00:00 7.9 0 Calma 0 Calma 0 -- -- 74
2019-10-16 03:00:00 9 0 Calma 4 Sudoeste 0 -- -- 70
2019-10-16 02:00:00 9.4 0 Calma 4 Sudoeste 0 -- -- 67
2019-10-16 01:00:00 10.1 0 Calma 3 Sudeste 0 -- -- 67
2019-10-16 00:00:00 10.3 0 Calma 8 Sudoeste 0 -- -- 62
2019-10-15 23:00:00 9.9 0 Calma 5 Sur 0 -- -- 63
2019-10-15 22:00:00 10.4 0 Calma 5 Sur 0 -- -- 62
2019-10-15 21:00:00 10.9 0 Calma 4 Sudoeste 0 -- -- 61
2019-10-15 20:00:00 12.3 0 Calma 8 Sur 0 -- -- 54
2019-10-15 19:00:00 14.2 0 Calma 15 Sudoeste 0 -- -- 48
2019-10-15 18:00:00 15.2 3 Oeste 18 Sudoeste 0 -- -- 47
2019-10-15 17:00:00 15.4 3 Oeste 18 Sudoeste 0 -- -- 46
2019-10-15 16:00:00 15.4 5 Sudoeste 18 Sudoeste 0 -- -- 48
2019-10-15 15:00:00 15.4 3 Sudoeste 14 Sudoeste 0 -- -- 45
2019-10-15 14:00:00 15.1 5 Sudeste 14 Sudeste 0 -- -- 53
2019-10-15 13:00:00 14.7 5 Este 18 Este 0 -- -- 50
2019-10-15 12:00:00 13.1 5 Nordeste 12 Noroeste 0 -- -- 57
2019-10-15 11:00:00 11.6 2 Oeste 9 Sur 0 -- -- 61
2019-10-15 10:00:00 9.5 0 Calma 11 Noroeste 0 -- -- 68
2019-10-15 09:00:00 7 3 Sudoeste 6 Sudeste 0 -- -- 77
2019-10-15 08:00:00 7.3 0 Calma 4 Noroeste 0 -- -- 74
2019-10-15 07:00:00 7.3 0 Calma 14 Noroeste 0 -- -- 72
2019-10-15 06:00:00 7.5 5 Noroeste 17 Noroeste 0 -- -- 71
2019-10-15 05:00:00 7.4 0 Calma 9 Sudoeste 0 -- -- 71
2019-10-15 04:00:00 8 3 Sudoeste 15 Sudoeste 0 -- -- 69
2019-10-15 03:00:00 8.3 4 Oeste 14 Noroeste 0 -- -- 70
2019-10-15 02:00:00 8.4 3 Oeste 19 Noroeste 0 -- -- 72
2019-10-15 01:00:00 8.5 2 Oeste 16 Noroeste 0 -- -- 76
2019-10-15 00:00:00 8.5 4 Sudoeste 11 Sudoeste 0 -- -- 81
2019-10-14 23:00:00 8.8 0 Calma 9 Sudoeste 0 -- -- 93
2019-10-14 22:00:00 8.8 0 Calma 12 Noroeste 0 -- -- 90
2019-10-14 21:00:00 9.5 0 Calma 12 Sur 0 -- -- 94
2019-10-14 20:00:00 10.4 0 Calma 17 Noroeste 1.2 -- -- 92
2019-10-14 19:00:00 10.9 3 Oeste 35 Oeste 0.8 -- -- 89
2019-10-14 18:00:00 16.7 4 Oeste 31 Sudoeste 0 -- -- 50
2019-10-14 17:00:00 17.5 5 Oeste 25 Sudoeste 0 -- -- 46
2019-10-14 16:00:00 17.5 6 Oeste 24 Sudoeste 0 -- -- 49
2019-10-14 15:00:00 16.8 6 Oeste 22 Sudoeste 0 -- -- 56
2019-10-14 14:00:00 16.9 8 Oeste 24 Noroeste 0 -- -- 60
2019-10-14 13:00:00 15 4 Oeste 20 Sudoeste 0 -- -- 78
2019-10-14 12:00:00 16.4 4 Sudoeste 25 Sudoeste 0 -- -- 70
2019-10-14 11:00:00 17.2 8 Sudoeste 26 Sur 0 -- -- 66
2019-10-14 10:00:00 16.7 3 Oeste 22 Sudoeste 0 -- -- 69
2019-10-14 09:00:00 15.7 0 Calma 10 Sudoeste 0 -- -- 75
2019-10-14 08:00:00 14.7 2 Oeste 10 Sur 0 -- -- 75
2019-10-14 07:00:00 13.6 3 Sudeste 6 Sudeste 0 -- -- 82
2019-10-14 06:00:00 13.6 2 Este 5 Este 0 -- -- 81
2019-10-14 05:00:00 13.8 3 Este 5 Este 0 -- -- 80
2019-10-14 04:00:00 13.8 2 Este 8 Este 0 -- -- 80
2019-10-14 03:00:00 14.5 3 Este 6 Nordeste 0 -- -- 77
2019-10-14 02:00:00 14.3 2 Este 7 Sur 0 -- -- 78
2019-10-14 01:00:00 14.4 3 Este 9 Este 0 -- -- 78
2019-10-14 00:00:00 14.9 3 Sudeste 5 Este 0 -- -- 76
2019-10-13 23:00:00 14.1 0 Calma 5 Nordeste 0 -- -- 80
2019-10-13 22:00:00 14.7 0 Calma 3 Nordeste 0 -- -- 78
2019-10-13 21:00:00 15.9 0 Calma 2 Oeste 0 -- -- 72
2019-10-13 20:00:00 18.4 0 Calma 3 Sudoeste 0 -- -- 64
2019-10-13 19:00:00 21.4 4 Sudoeste 10 Sur 0 -- -- 54
2019-10-13 18:00:00 21.7 3 Sudoeste 12 Sudoeste 0 -- -- 52
2019-10-13 17:00:00 21.2 3 Oeste 18 Sudoeste 0 -- -- 53
2019-10-13 16:00:00 20.9 7 Sur 18 Sur 0 -- -- 56
2019-10-13 15:00:00 20.5 6 Sudoeste 17 Sur 0 -- -- 59
2019-10-13 14:00:00 19.2 0 Calma 17 Sur 0 -- -- 62
2019-10-13 13:00:00 19.5 5 Sudoeste 17 Sudoeste 0 -- -- 67
2019-10-13 12:00:00 18.3 3 Sudoeste 13 Sur 0 -- -- 75
2019-10-13 11:00:00 17.4 4 Sudeste 11 Sudeste 0 -- -- 84
2019-10-13 10:00:00 15.3 2 Sudoeste 6 Sur 0 -- -- 95
2019-10-13 09:00:00 11.8 0 Calma 3 Norte 0 -- -- 96
2019-10-13 08:00:00 11.4 0 Calma 5 Nordeste 0 -- -- 94
2019-10-13 07:00:00 11.9 2 Este 5 Nordeste 0 -- -- 93
2019-10-13 06:00:00 12.2 0 Calma 5 Sudeste 0 -- -- 92
2019-10-13 05:00:00 12.3 0 Calma 4 Nordeste 0 -- -- 92
2019-10-13 04:00:00 12.6 2 Norte 4 Norte 0 -- -- 91
2019-10-13 03:00:00 13.6 0 Calma 5 Sudeste 0 -- -- 88
2019-10-13 02:00:00 14.3 3 Sudeste 13 Este 0 -- -- 85
2019-10-13 01:00:00 14.8 3 Este 21 Este 0 -- -- 85
2019-10-13 00:00:00 14.9 9 Nordeste 17 Este 0 -- -- 89
2019-10-12 23:00:00 14.8 4 Sudeste 15 Norte 0.6 -- -- 89
2019-10-12 22:00:00 15.3 4 Nordeste 15 Sur 0.6 -- -- 84
2019-10-12 21:00:00 16.3 5 Sudoeste 43 Sudoeste 8 -- -- 69
2019-10-12 20:00:00 20.6 0 Calma 8 Sur 0 -- -- 48
2019-10-12 19:00:00 24.1 3 Sur 17 Sur 0 -- -- 40
2019-10-12 18:00:00 24.3 7 Sur 17 Sur 0 -- -- 41
2019-10-12 17:00:00 24.3 5 Sur 18 Sur 0 -- -- 45
2019-10-12 16:00:00 24 4 Sudeste 19 Sur 0 -- -- 47
2019-10-12 15:00:00 23.9 4 Este 14 Sudeste 0 -- -- 48
2019-10-12 14:00:00 23.2 4 Este 12 Este 0 -- -- 53
2019-10-12 13:00:00 21.5 5 Este 17 Sudeste 0 -- -- 61
2019-10-12 12:00:00 19.6 4 Este 12 Nordeste 0 -- -- 69
2019-10-12 11:00:00 18.3 5 Este 15 Este 0 -- -- 74
2019-10-12 10:00:00 16.8 4 Este 9 Este 0 -- -- 77
2019-10-12 09:00:00 15.3 0 Calma 3 Sudeste 0 -- -- 82
2019-10-12 08:00:00 16.3 0 Calma 4 Sudeste 0 -- -- 78
2019-10-12 07:00:00 17 3 Sudeste 9 Sudeste 0 -- -- 75
2019-10-12 06:00:00 16.2 0 Calma 5 Este 0 -- -- 75
2019-10-12 05:00:00 17.1 2 Este 5 Nordeste 0 -- -- 70
2019-10-12 04:00:00 17.3 2 Nordeste 4 Nordeste 0 -- -- 72
2019-10-12 03:00:00 18.2 2 Norte 4 Nordeste 0 -- -- 69
2019-10-12 02:00:00 18.5 2 Sudeste 6 Sudeste 0 -- -- 66
2019-10-12 01:00:00 19 2 Sudeste 5 Nordeste 0 -- -- 69
2019-10-12 00:00:00 19.3 0 Calma 4 Este 0 -- -- 68
2019-10-11 23:00:00 20.3 0 Calma 4 Noroeste 0 -- -- 64
2019-10-11 22:00:00 20.2 0 Calma 3 Noroeste 0 -- -- 65
2019-10-11 21:00:00 20.6 0 Calma 4 Noroeste 0 -- -- 63
2019-10-11 20:00:00 22 0 Calma 4 Sur 0 -- -- 59
2019-10-11 19:00:00 24.3 0 Calma 17 Sur 0 -- -- 52
2019-10-11 18:00:00 24.5 6 Sur 15 Sudeste 0 -- -- 54
2019-10-11 17:00:00 24.2 6 Sudeste 13 Sudeste 0 -- -- 55
2019-10-11 16:00:00 24.1 6 Sudeste 17 Sudeste 0 -- -- 55
2019-10-11 15:00:00 23.4 5 Sudeste 15 Sudeste 0 -- -- 56
2019-10-11 14:00:00 23.2 5 Sudeste 15 Sur 0 -- -- 59
2019-10-11 13:00:00 22.3 4 Sudeste 14 Este 0 -- -- 60
2019-10-11 12:00:00 20.5 3 Nordeste 8 Sudeste 0 -- -- 65
2019-10-11 11:00:00 18.8 4 Sudeste 9 Este 0 -- -- 71
2019-10-11 10:00:00 15.5 3 Sudeste 5 Sudeste 0 -- -- 80
2019-10-11 09:00:00 13.3 0 Calma 5 Sudeste 0 -- -- 85
2019-10-11 08:00:00 13.5 2 Sudeste 5 Sudeste 0 -- -- 83
2019-10-11 07:00:00 13.2 2 Sudeste 4 Este 0 -- -- 84
2019-10-11 06:00:00 13.3 2 Sudeste 4 Sudeste 0 -- -- 82
2019-10-11 05:00:00 13.5 2 Este 4 Sudeste 0 -- -- 83
2019-10-11 04:00:00 14 0 Calma 4 Este 0 -- -- 78
2019-10-11 03:00:00 14.5 0 Calma 4 Norte 0 -- -- 77
2019-10-11 02:00:00 15.6 3 Norte 5 Norte 0 -- -- 73
2019-10-11 01:00:00 16.1 0 Calma 5 Nordeste 0 -- -- 70
2019-10-11 00:00:00 17.8 2 Este 15 Sudeste 0 -- -- 64
2019-10-10 23:00:00 18.2 5 Norte 8 Norte 0 -- -- 62
2019-10-10 22:00:00 16.3 0 Calma 2 Norte 0 -- -- 70
2019-10-10 21:00:00 17.5 0 Calma 2 Norte 0 -- -- 66
2019-10-10 20:00:00 19.9 0 Calma 4 Noroeste 0 -- -- 59
2019-10-10 19:00:00 23 0 Calma 8 Sudeste 0 -- -- 49
2019-10-10 18:00:00 23.4 2 Sudoeste 10 Sudeste 0 -- -- 50
2019-10-10 17:00:00 22.8 3 Este 10 Este 0 -- -- 54
2019-10-10 16:00:00 22.4 5 Este 13 Sudeste 0 -- -- 57
2019-10-10 15:00:00 22.3 5 Sudeste 14 Sudeste 0 -- -- 58
2019-10-10 14:00:00 21.5 4 Este 14 Este 0 -- -- 60
2019-10-10 13:00:00 19.8 6 Nordeste 14 Nordeste 0 -- -- 63
2019-10-10 12:00:00 17 3 Este 10 Este 0 -- -- 64
2019-10-10 11:00:00 15.4 3 Este 9 Este 0 -- -- 66
2019-10-10 10:00:00 14.2 4 Este 10 Sudeste 0 -- -- 70
2019-10-10 09:00:00 13.4 3 Este 8 Nordeste 0 -- -- 71
2019-10-10 08:00:00 12.5 4 Este 11 Este 0 -- -- 72
2019-10-10 07:00:00 12.3 3 Nordeste 8 Nordeste 0 -- -- 73
2019-10-10 06:00:00 12.5 3 Este 14 Nordeste 0 -- -- 72
2019-10-10 05:00:00 13.6 4 Este 18 Nordeste 0 -- -- 68
2019-10-10 04:00:00 14 6 Este 16 Sudeste 0 -- -- 67
2019-10-10 03:00:00 14.6 5 Este 17 Nordeste 0 -- -- 65
2019-10-10 02:00:00 15.6 5 Este 19 Nordeste 0 -- -- 62
2019-10-10 01:00:00 16.5 8 Este 20 Este 0 -- -- 57
2019-10-10 00:00:00 17.2 7 Este 21 Nordeste 0 -- -- 54
2019-10-09 23:00:00 17.8 3 Este 10 Este 0 -- -- 52
2019-10-09 22:00:00 19.4 3 Este 16 Nordeste 0 -- -- 48
2019-10-09 21:00:00 20.7 3 Sudeste 10 Este 0 -- -- 48
2019-10-09 20:00:00 22.6 0 Calma 8 Sudeste 0 -- -- 48
2019-10-09 19:00:00 26.1 3 Noroeste 11 Sur 0 -- -- 39
2019-10-09 18:00:00 26.3 3 Noroeste 15 Sur 0 -- -- 37
2019-10-09 17:00:00 26.4 4 Sudoeste 17 Sudeste 0 -- -- 39
2019-10-09 16:00:00 25.9 4 Sudeste 14 Sudeste 0 -- -- 41
2019-10-09 15:00:00 25.9 5 Sur 14 Sur 0 -- -- 42
2019-10-09 14:00:00 25.8 5 Sudeste 13 Sudeste 0 -- -- 47
2019-10-09 13:00:00 25 6 Sudeste 18 Este 0 -- -- 47
2019-10-09 12:00:00 22.9 6 Este 14 Sudeste 0 -- -- 55
2019-10-09 11:00:00 20.2 5 Este 10 Este 0 -- -- 61
2019-10-09 10:00:00 17.4 5 Nordeste 9 Nordeste 0 -- -- 68
2019-10-09 09:00:00 14.9 2 Este 6 Sudeste 0 -- -- 70
2019-10-09 08:00:00 13.6 0 Calma 6 Noroeste 0 -- -- 73
2019-10-09 07:00:00 13.6 0 Calma 4 Sudeste 0 -- -- 72
2019-10-09 06:00:00 13.9 0 Calma 4 Norte 0 -- -- 70
2019-10-09 05:00:00 14.4 0 Calma 8 Noroeste 0 -- -- 67
2019-10-09 04:00:00 15 0 Calma 4 Noroeste 0 -- -- 65
2019-10-09 03:00:00 15.1 0 Calma 4 Sudeste 0 -- -- 63
2019-10-09 02:00:00 15.5 2 Este 4 Este 0 -- -- 61
2019-10-09 01:00:00 16.6 0 Calma 5 Este 0 -- -- 56
2019-10-09 00:00:00 17.7 0 Calma 4 Este 0 -- -- 53
2019-10-08 23:00:00 19.8 0 Calma 9 Noroeste 0 -- -- 46
2019-10-08 22:00:00 19.8 4 Noroeste 8 Noroeste 0 -- -- 45
2019-10-08 21:00:00 20.3 0 Calma 4 Sur 0 -- -- 46
2019-10-08 20:00:00 23.3 3 Sur 10 Sur 0 -- -- 39
2019-10-08 19:00:00 26.7 5 Sur 15 Sudoeste 0 -- -- 32
2019-10-08 18:00:00 27 7 Sur 21 Sur 0 -- -- 32
2019-10-08 17:00:00 26.6 7 Sur 17 Sudoeste 0 -- -- 33
2019-10-08 16:00:00 26.3 9 Sur 24 Sur 0 -- -- 35
2019-10-08 15:00:00 26.5 8 Sur 18 Sur 0 -- -- 34
2019-10-08 14:00:00 26.4 7 Sur 15 Sur 0 -- -- 34
2019-10-08 13:00:00 25.2 4 Sudeste 10 Sudeste 0 -- -- 38
2019-10-08 12:00:00 23 4 Sudeste 8 Sudeste 0 -- -- 42
2019-10-08 11:00:00 20.9 4 Sudeste 8 Este 0 -- -- 47
2019-10-08 10:00:00 16.7 0 Calma 5 Sudeste 0 -- -- 59
2019-10-08 09:00:00 13.3 0 Calma 5 Este 0 -- -- 66
2019-10-08 08:00:00 13 2 Sudeste 5 Nordeste 0 -- -- 65
2019-10-08 07:00:00 13.5 0 Calma 5 Nordeste 0 -- -- 63
2019-10-08 06:00:00 15 2 Este 8 Nordeste 0 -- -- 58
2019-10-08 05:00:00 14.3 3 Nordeste 6 Nordeste 0 -- -- 61
2019-10-08 04:00:00 14.7 0 Calma 11 Nordeste 0 -- -- 59
2019-10-08 03:00:00 15.4 3 Este 11 Nordeste 0 -- -- 57
2019-10-08 02:00:00 15.6 0 Calma 9 Sudeste 0 -- -- 57
2019-10-08 01:00:00 15.3 3 Este 7 Sudeste 0 -- -- 59
2019-10-08 00:00:00 16.3 0 Calma 5 Sudeste 0 -- -- 54
2019-10-07 23:00:00 17.8 0 Calma 6 Sudoeste 0 -- -- 51
2019-10-07 22:00:00 19.8 0 Calma 5 Sudoeste 0 -- -- 47
2019-10-07 21:00:00 19.3 0 Calma 4 Nordeste 0 -- -- 50
2019-10-07 20:00:00 22.1 0 Calma 7 Sudoeste 0 -- -- 43
2019-10-07 19:00:00 25.8 5 Sur 12 Sur 0 -- -- 36
2019-10-07 18:00:00 26.1 5 Sur 11 Sudeste 0 -- -- 35
2019-10-07 17:00:00 25.6 4 Sur 15 Sur 0 -- -- 35
2019-10-07 16:00:00 25.3 7 Sudeste 17 Sudeste 0 -- -- 36
2019-10-07 15:00:00 25.3 7 Sudeste 16 Sudeste 0 -- -- 36
2019-10-07 14:00:00 24.1 4 Sudeste 8 Sudeste 0 -- -- 38
2019-10-07 13:00:00 21.4 0 Calma 9 Nordeste 0 -- -- 43
2019-10-07 12:00:00 19.3 3 Norte 8 Sudeste 0 -- -- 55
2019-10-07 11:00:00 16 2 Nordeste 6 Este 0 -- -- 71
2019-10-07 10:00:00 12.8 3 Sudeste 8 Sudeste 0 -- -- 91
2019-10-07 09:00:00 11 3 Este 6 Nordeste 0 -- -- 94
2019-10-07 08:00:00 12.4 0 Calma 6 Este 0 -- -- 68
2019-10-07 07:00:00 13 3 Sudeste 7 Sur 0 -- -- 65
2019-10-07 06:00:00 12.2 0 Calma 5 Sudeste 0 -- -- 64
2019-10-07 05:00:00 12.7 2 Este 5 Este 0 -- -- 62
2019-10-07 04:00:00 12.9 0 Calma 3 Norte 0 -- -- 59
2019-10-07 03:00:00 13.4 0 Calma 5 Sudeste 0 -- -- 59
2019-10-07 02:00:00 14.2 0 Calma 4 Sur 0 -- -- 56
2019-10-07 01:00:00 15 4 Sudoeste 6 Sur 0 -- -- 52
2019-10-07 00:00:00 17 5 Sudoeste 6 Sudoeste 0 -- -- 47
2019-10-06 23:00:00 18 5 Norte 11 Norte 0 -- -- 44
2019-10-06 22:00:00 20.2 4 Norte 15 Noroeste 0 -- -- 38
2019-10-06 21:00:00 20.9 7 Norte 11 Norte 0 -- -- 38
2019-10-06 20:00:00 22.9 0 Calma 12 Oeste 0 -- -- 32
2019-10-06 19:00:00 25.8 4 Noroeste 17 Noroeste 0 -- -- 27
2019-10-06 18:00:00 25.4 5 Sur 15 Sur 0 -- -- 31
2019-10-06 17:00:00 25.4 6 Sudeste 16 Sur 0 -- -- 34
2019-10-06 16:00:00 24.8 6 Sur 14 Sur 0 -- -- 34
2019-10-06 15:00:00 24.7 4 Sur 14 Sudoeste 0 -- -- 34
2019-10-06 14:00:00 24.3 4 Sur 13 Sur 0 -- -- 35
2019-10-06 13:00:00 22.9 5 Sur 10 Sur 0 -- -- 41
2019-10-06 12:00:00 21 4 Sudeste 10 Sudeste 0 -- -- 44
2019-10-06 11:00:00 17.7 3 Este 8 Nordeste 0 -- -- 56
2019-10-06 10:00:00 15.6 3 Este 6 Sudeste 0 -- -- 66
2019-10-06 09:00:00 12.9 3 Norte 8 Norte 0 -- -- 68
2019-10-06 08:00:00 10.9 3 Norte 5 Norte 0 -- -- 75
2019-10-06 07:00:00 11.4 0 Calma 6 Norte 0 -- -- 74
2019-10-06 06:00:00 10.9 0 Calma 3 Nordeste 0 -- -- 75
2019-10-06 05:00:00 11.5 0 Calma 4 Sudoeste 0 -- -- 72
2019-10-06 04:00:00 13.7 0 Calma 9 Sudeste 0 -- -- 65
2019-10-06 03:00:00 15.8 3 Sudoeste 10 Sudoeste 0 -- -- 59
2019-10-06 02:00:00 14.2 4 Sur 7 Sur 0 -- -- 65
2019-10-06 01:00:00 14.4 0 Calma 6 Nordeste 0 -- -- 63
2019-10-06 00:00:00 16.6 3 Este 9 Noroeste 0 -- -- 62
2019-10-05 23:00:00 17.3 5 Noroeste 11 Noroeste 0 -- -- 55
2019-10-05 22:00:00 14.5 0 Calma 4 Sudoeste 0 -- -- 77
2019-10-05 21:00:00 16.1 0 Calma 6 Sudoeste 0 -- -- 85
2019-10-05 20:00:00 22.3 3 Sur 12 Sudoeste 0 -- -- 43
2019-10-05 19:00:00 24.9 6 Sur 17 Sur 0 -- -- 36
2019-10-05 18:00:00 25.2 6 Sur 18 Sur 0 -- -- 38
2019-10-05 17:00:00 24.9 8 Sur 19 Sur 0 -- -- 39
2019-10-05 16:00:00 24.2 5 Sur 17 Sur 0 -- -- 42
2019-10-05 15:00:00 24.3 4 Sudoeste 18 Sur 0 -- -- 41
2019-10-05 14:00:00 23.7 8 Sur 16 Sur 0 -- -- 44
2019-10-05 13:00:00 22.3 5 Sur 14 Sur 0 -- -- 51
2019-10-05 12:00:00 19.3 2 Sudeste 8 Este 0 -- -- 65
2019-10-05 11:00:00 15.9 3 Sudeste 8 Este 0 -- -- 83
2019-10-05 10:00:00 12.8 2 Sudeste 5 Sudeste 0 -- -- 97
2019-10-05 09:00:00 10.9 0 Calma 3 Nordeste 0 -- -- 96
2019-10-05 08:00:00 11.1 2 Norte 5 Norte 0 -- -- 84
2019-10-05 07:00:00 11.3 0 Calma 3 Norte 0 -- -- 80
2019-10-05 06:00:00 11.7 0 Calma 2 Sur 0 -- -- 79
2019-10-05 05:00:00 12.3 0 Calma 3 Sudoeste 0 -- -- 73
2019-10-05 04:00:00 13 0 Calma 4 Oeste 0 -- -- 67
2019-10-05 03:00:00 13.4 0 Calma 2 Sudeste 0 -- -- 73
2019-10-05 02:00:00 14.9 0 Calma 8 Este 0 -- -- 67
2019-10-05 01:00:00 14.5 6 Sudeste 11 Sudeste 0 -- -- 66
2019-10-05 00:00:00 16.2 2 Este 6 Este 0 -- -- 48
2019-10-04 23:00:00 16.8 0 Calma 6 Sudoeste 0 -- -- 46
2019-10-04 22:00:00 18 0 Calma 6 Sudoeste 0 -- -- 43
2019-10-04 21:00:00 20.1 0 Calma 6 Sudoeste 0 -- -- 40
2019-10-04 20:00:00 22.9 0 Calma 12 Sudoeste 0 -- -- 35
2019-10-04 19:00:00 25.4 5 Sudoeste 17 Sur 0 -- -- 30
2019-10-04 18:00:00 25.7 5 Sudoeste 19 Sur 0 -- -- 31
2019-10-04 17:00:00 25.6 4 Sudoeste 16 Sur 0 -- -- 30
2019-10-04 16:00:00 25.1 5 Sudoeste 15 Sudoeste 0 -- -- 30
2019-10-04 15:00:00 24.3 5 Sudoeste 14 Sudoeste 0 -- -- 33
2019-10-04 14:00:00 24.2 5 Sudoeste 20 Sur 0 -- -- 33
2019-10-04 13:00:00 22.8 7 Sur 14 Sudeste 0 -- -- 35
2019-10-04 12:00:00 20.6 4 Este 9 Este 0 -- -- 42
2019-10-04 11:00:00 18.3 5 Este 10 Este 0 -- -- 49
2019-10-04 10:00:00 14.5 4 Sudeste 8 Sudeste 0 -- -- 60
2019-10-04 09:00:00 11.5 3 Sudeste 4 Este 0 -- -- 64
2019-10-04 08:00:00 10.1 0 Calma 4 Este 0 -- -- 68
2019-10-04 07:00:00 9.7 0 Calma 4 Nordeste 0 -- -- 70
2019-10-04 06:00:00 10.4 0 Calma 4 Norte 0 -- -- 66
2019-10-04 05:00:00 11.1 0 Calma 2 Sudoeste 0 -- -- 63
2019-10-04 04:00:00 11.6 0 Calma 3 Noroeste 0 -- -- 60
2019-10-04 03:00:00 13.3 0 Calma 8 Sudeste 0 -- -- 56
2019-10-04 02:00:00 12.9 0 Calma 4 Sudeste 0 -- -- 58
2019-10-04 01:00:00 15.9 2 Sudeste 9 Noroeste 0 -- -- 50
2019-10-04 00:00:00 15.9 0 Calma 10 Nordeste 0 -- -- 50
2019-10-03 23:00:00 16.6 4 Norte 6 Norte 0 -- -- 47
2019-10-03 22:00:00 15.4 0 Calma 5 Este 0 -- -- 52
2019-10-03 21:00:00 18 0 Calma 7 Sudeste 0 -- -- 45
2019-10-03 20:00:00 20.6 3 Sudeste 14 Sudeste 0 -- -- 42
2019-10-03 19:00:00 23.3 7 Sudeste 13 Este 0 -- -- 36
2019-10-03 18:00:00 23.9 6 Sudeste 13 Sur 0 -- -- 34
2019-10-03 17:00:00 23.3 5 Sur 16 Sur 0 -- -- 34
2019-10-03 16:00:00 22.3 7 Sur 17 Sudoeste 0 -- -- 36
2019-10-03 15:00:00 21.7 5 Sudoeste 15 Sudoeste 0 -- -- 38
2019-10-03 14:00:00 20.9 5 Sudeste 14 Sur 0 -- -- 41
2019-10-03 13:00:00 19.4 5 Sur 12 Sur 0 -- -- 48
2019-10-03 12:00:00 16.6 3 Nordeste 7 Sudeste 0 -- -- 58
2019-10-03 11:00:00 14.5 4 Sudeste 7 Sudeste 0 -- -- 65
2019-10-03 10:00:00 11.7 4 Sudeste 6 Sudeste 0 -- -- 73
2019-10-03 09:00:00 9.1 0 Calma 3 Sudeste 0 -- -- 82
2019-10-03 08:00:00 9 0 Calma 5 Noroeste 0 -- -- 78
2019-10-03 07:00:00 9.2 2 Noroeste 5 Noroeste 0 -- -- 78
2019-10-03 06:00:00 9 0 Calma 3 Noroeste 0 -- -- 78
2019-10-03 05:00:00 9.5 0 Calma 3 Sudeste 0 -- -- 77
2019-10-03 04:00:00 10.3 2 Este 5 Sudeste 0 -- -- 74
2019-10-03 03:00:00 10.8 2 Este 4 Sudeste 0 -- -- 74
2019-10-03 02:00:00 10.7 2 Este 8 Sudeste 0 -- -- 75
2019-10-03 01:00:00 10.7 0 Calma 6 Sudeste 0 -- -- 73
2019-10-03 00:00:00 10.8 0 Calma 5 Este 0 -- -- 73
2019-10-02 23:00:00 11.6 3 Nordeste 7 Nordeste 0 -- -- 71
2019-10-02 22:00:00 11.6 0 Calma 9 Este 0 -- -- 74
2019-10-02 21:00:00 13.3 3 Este 10 Este 0 -- -- 86
2019-10-02 20:00:00 18.7 2 Este 13 Sudeste 0 -- -- 44
2019-10-02 19:00:00 20.6 4 Este 17 Este 0 -- -- 39
2019-10-02 18:00:00 21.2 6 Este 18 Sudeste 0 -- -- 37
2019-10-02 17:00:00 21.1 5 Norte 17 Norte 0 -- -- 33
2019-10-02 16:00:00 20.7 4 Nordeste 15 Nordeste 0 -- -- 33
2019-10-02 15:00:00 20.6 4 Sur 15 Sudeste 0 -- -- 39
2019-10-02 14:00:00 19.8 5 Este 15 Este 0 -- -- 46
2019-10-02 13:00:00 18.5 4 Sudeste 14 Sudeste 0 -- -- 51
2019-10-02 12:00:00 16.8 5 Sudeste 9 Sur 0 -- -- 60
2019-10-02 11:00:00 14.4 3 Sudoeste 14 Sur 0 -- -- 68
2019-10-02 10:00:00 12.2 2 Oeste 5 Sur 0 -- -- 77
2019-10-02 09:00:00 9.7 0 Calma 2 Noroeste 0 -- -- 94
2019-10-02 08:00:00 10.5 0 Calma 7 Sudeste 0 -- -- 75
2019-10-02 07:00:00 12.3 0 Calma 2 Oeste 0 -- -- 69
2019-10-02 06:00:00 13.2 0 Calma 7 Noroeste 0 -- -- 67
2019-10-02 05:00:00 13.8 0 Calma 12 Noroeste 0 -- -- 70
2019-10-02 04:00:00 14.7 2 Oeste 20 Noroeste 0 -- -- 67
2019-10-02 03:00:00 15.7 4 Noroeste 17 Noroeste 0 -- -- 62
2019-10-02 02:00:00 16.9 9 Noroeste 40 Noroeste 0 -- -- 56
2019-10-02 01:00:00 18.2 12 Noroeste 31 Noroeste 0 -- -- 51
2019-10-02 00:00:00 18.7 5 Oeste 38 Noroeste 0 -- -- 50
2019-10-01 23:00:00 18.1 9 Noroeste 26 Noroeste 0 -- -- 54
2019-10-01 22:00:00 14.7 0 Calma 4 Noroeste 0 -- -- 67
2019-10-01 21:00:00 14.7 0 Calma 23 Noroeste 0 -- -- 82
2019-10-01 20:00:00 20.9 7 Noroeste 26 Noroeste 0 -- -- 45
2019-10-01 19:00:00 22.5 8 Noroeste 26 Noroeste 0 -- -- 46
2019-10-01 18:00:00 23.4 8 Oeste 34 Noroeste 0 -- -- 45
2019-10-01 17:00:00 24.9 11 Noroeste 31 Noroeste 0 -- -- 35
2019-10-01 16:00:00 25.1 5 Oeste 18 Sur 0 -- -- 34
2019-10-01 15:00:00 24.7 4 Oeste 19 Sur 0 -- -- 37
2019-10-01 14:00:00 24.1 3 Oeste 16 Noroeste 0 -- -- 37
2019-10-01 13:00:00 23.2 5 Sudoeste 19 Sudoeste 0 -- -- 42
2019-10-01 12:00:00 20.2 3 Sudeste 7 Sudeste 0 -- -- 47
2019-10-01 11:00:00 16.2 2 Sudeste 8 Sudeste 0 -- -- 60
2019-10-01 10:00:00 12.6 3 Este 6 Este 0 -- -- 77
2019-10-01 09:00:00 9.7 3 Sudeste 6 Sudeste 0 -- -- 90
2019-10-01 08:00:00 11 0 Calma 4 Sudeste 0 -- -- 63
2019-10-01 07:00:00 11.2 2 Sudeste 4 Sudeste 0 -- -- 63
2019-10-01 06:00:00 11.7 0 Calma 3 Sudeste 0 -- -- 61
2019-10-01 05:00:00 11.9 0 Calma 3 Este 0 -- -- 60
2019-10-01 04:00:00 12.2 0 Calma 3 Este 0 -- -- 57
2019-10-01 03:00:00 12.2 0 Calma 4 Sudeste 0 -- -- 51
2019-10-01 02:00:00 12.8 0 Calma 3 Este 0 -- -- 50
2019-10-01 01:00:00 14.2 0 Calma 2 Este 0 -- -- 43
2019-10-01 00:00:00 15 0 Calma 3 Sur 0 -- -- 42
2019-09-30 23:00:00 14.6 0 Calma 7 Sudoeste 0 -- -- 51
2019-09-30 22:00:00 14.3 0 Calma 7 Sur 0 -- -- 54
2019-09-30 21:00:00 16 0 Calma 6 Sudoeste 0 -- -- 77
2019-09-30 20:00:00 24.4 0 Calma 10 Sur 0 -- -- 27
2019-09-30 19:00:00 26.7 5 Sudoeste 17 Sur 0 -- -- 22
2019-09-30 18:00:00 27.5 4 Sudoeste 22 Oeste 0 -- -- 22
2019-09-30 17:00:00 27.2 4 Sudoeste 17 Sur 0 -- -- 21
2019-09-30 16:00:00 26.7 5 Sudoeste 23 Sur 0 -- -- 25
2019-09-30 15:00:00 26.7 6 Sudoeste 19 Sur 0 -- -- 26
2019-09-30 14:00:00 26.2 5 Sur 19 Sudoeste 0 -- -- 28
2019-09-30 13:00:00 24.2 3 Este 10 Sudeste 0 -- -- 34
2019-09-30 12:00:00 21.8 5 Sudeste 11 Sudeste 0 -- -- 42
2019-09-30 11:00:00 17.6 6 Este 12 Este 0 -- -- 57
2019-09-30 10:00:00 12.7 5 Sudeste 8 Sudeste 0 -- -- 78
2019-09-30 09:00:00 10 3 Sudeste 7 Este 0 -- -- 91
2019-09-30 08:00:00 13.6 3 Nordeste 7 Norte 0 -- -- 51
2019-09-30 07:00:00 11.5 3 Norte 4 Norte 0 -- -- 59
2019-09-30 06:00:00 12 0 Calma 4 Norte 0 -- -- 57
2019-09-30 05:00:00 12.9 3 Norte 5 Norte 0 -- -- 56
2019-09-30 04:00:00 13.7 0 Calma 3 Oeste 0 -- -- 54
2019-09-30 03:00:00 14.1 0 Calma 6 Este 0 -- -- 53
2019-09-30 02:00:00 14.9 4 Sudeste 8 Sudeste 0 -- -- 52
2019-09-30 01:00:00 16.4 0 Calma 5 Sudeste 0 -- -- 46
2019-09-30 00:00:00 18.9 2 Este 13 Norte 0 -- -- 39
2019-09-29 23:00:00 20.4 4 Noroeste 10 Noroeste 0 -- -- 34
2019-09-29 22:00:00 18.6 0 Calma 4 Noroeste 0 -- -- 38
2019-09-29 21:00:00 21.7 0 Calma 6 Sudoeste 0 -- -- 34
2019-09-29 20:00:00 25 2 Oeste 10 Sudoeste 0 -- -- 29
2019-09-29 19:00:00 27.2 8 Sur 20 Sur 0 -- -- 26
2019-09-29 18:00:00 27.7 3 Oeste 20 Sudoeste 0 -- -- 25
2019-09-29 17:00:00 27.7 5 Sudoeste 27 Sur 0 -- -- 26
2019-09-29 16:00:00 27.6 6 Sudoeste 21 Sur 0 -- -- 25
2019-09-29 15:00:00 27.2 5 Sudoeste 20 Sudoeste 0 -- -- 31
2019-09-29 14:00:00 25.7 4 Sudoeste 15 Sur 0 -- -- 36
2019-09-29 13:00:00 23.8 4 Sudeste 9 Este 0 -- -- 43
2019-09-29 12:00:00 21.3 3 Sudeste 8 Este 0 -- -- 48
2019-09-29 11:00:00 18.8 3 Este 9 Este 0 -- -- 51
2019-09-29 10:00:00 14.8 5 Sudeste 8 Este 0 -- -- 56
2019-09-29 09:00:00 11.6 3 Sudeste 5 Sudeste 0 -- -- 66
2019-09-29 08:00:00 10.7 3 Este 5 Este 0 -- -- 67
2019-09-29 07:00:00 10.5 3 Este 6 Sudeste 0 -- -- 67
2019-09-29 06:00:00 11.1 0 Calma 6 Norte 0 -- -- 64
2019-09-29 05:00:00 11 0 Calma 5 Este 0 -- -- 68
2019-09-29 04:00:00 11.2 0 Calma 4 Este 0 -- -- 67
2019-09-29 03:00:00 11.7 3 Este 5 Sudeste 0 -- -- 62
2019-09-29 02:00:00 12.5 0 Calma 4 Este 0 -- -- 57
2019-09-29 01:00:00 13.1 2 Sudeste 4 Este 0 -- -- 53
2019-09-29 00:00:00 13.3 0 Calma 4 Norte 0 -- -- 56
2019-09-28 23:00:00 13.2 2 Norte 6 Norte 0 -- -- 53
2019-09-28 22:00:00 12.7 0 Calma 4 Sur 0 -- -- 55
2019-09-28 21:00:00 14.6 0 Calma 6 Sur 0 -- -- 73
2019-09-28 20:00:00 23.5 2 Sur 15 Sudoeste 0 -- -- 29
2019-09-28 19:00:00 26 8 Sur 19 Sur 0 -- -- 24
2019-09-28 18:00:00 26.3 9 Sur 23 Sur 0 -- -- 26
2019-09-28 17:00:00 26.1 9 Sur 18 Sur 0 -- -- 28
2019-09-28 16:00:00 25.7 6 Sur 18 Sur 0 -- -- 30
2019-09-28 15:00:00 25.4 3 Oeste 14 Sur 0 -- -- 30
2019-09-28 14:00:00 25 6 Sur 15 Sur 0 -- -- 34
2019-09-28 13:00:00 23.1 4 Este 12 Este 0 -- -- 42
2019-09-28 12:00:00 21.1 6 Sudeste 17 Este 0 -- -- 52
2019-09-28 11:00:00 17.5 5 Sudeste 13 Sudeste 0 -- -- 65
2019-09-28 10:00:00 12.8 4 Este 8 Este 0 -- -- 83
2019-09-28 09:00:00 10.7 3 Nordeste 6 Este 0 -- -- 92
2019-09-28 08:00:00 12.7 0 Calma 6 Nordeste 0 -- -- 64
2019-09-28 07:00:00 14 4 Nordeste 10 Nordeste 0 -- -- 60
2019-09-28 06:00:00 14.2 5 Nordeste 9 Nordeste 0 -- -- 61
2019-09-28 05:00:00 14.7 2 Nordeste 8 Nordeste 0 -- -- 54
2019-09-28 04:00:00 12.3 3 Nordeste 6 Nordeste 0 -- -- 58
2019-09-28 03:00:00 12.5 0 Calma 3 Sudeste 0 -- -- 56
2019-09-28 02:00:00 13.8 2 Sur 4 Sur 0 -- -- 54
2019-09-28 01:00:00 14.1 0 Calma 2 Sudeste 0 -- -- 53
2019-09-28 00:00:00 15.3 0 Calma 3 Sudeste 0 -- -- 49
2019-09-27 23:00:00 17.5 0 Calma 7 Este 0 -- -- 44
2019-09-27 22:00:00 21.6 5 Noroeste 10 Noroeste 0 -- -- 27
2019-09-27 21:00:00 22.3 5 Norte 10 Noroeste 0 -- -- 32
2019-09-27 20:00:00 24.5 5 Noroeste 17 Noroeste 0 -- -- 29
2019-09-27 19:00:00 26.4 3 Sudoeste 18 Sudoeste 0 -- -- 29
2019-09-27 18:00:00 26.8 8 Sur 22 Sur 0 -- -- 29
2019-09-27 17:00:00 26.8 9 Sur 20 Sur 0 -- -- 30
2019-09-27 16:00:00 26.5 4 Oeste 16 Sur 0 -- -- 29
2019-09-27 15:00:00 26 3 Oeste 16 Sur 0 -- -- 33
2019-09-27 14:00:00 25.2 5 Oeste 13 Sur 0 -- -- 37
2019-09-27 13:00:00 24.2 3 Sudeste 10 Este 0 -- -- 39
2019-09-27 12:00:00 22.6 4 Este 12 Sudeste 0 -- -- 43
2019-09-27 11:00:00 20.2 4 Sudeste 8 Sudeste 0 -- -- 49
2019-09-27 10:00:00 16.9 3 Este 7 Nordeste 0 -- -- 59
2019-09-27 09:00:00 13.6 0 Calma 4 Sudeste 0 -- -- 66
2019-09-27 08:00:00 12.9 0 Calma 5 Este 0 -- -- 72
2019-09-27 07:00:00 12.3 0 Calma 3 Sur 0 -- -- 73
2019-09-27 06:00:00 13 0 Calma 3 Norte 0 -- -- 73
2019-09-27 05:00:00 13.3 0 Calma 2 Oeste 0 -- -- 75
2019-09-27 04:00:00 13.7 0 Calma 5 Sudeste 0 -- -- 74
2019-09-27 03:00:00 14.2 2 Este 3 Sudeste 0 -- -- 72
2019-09-27 02:00:00 15 0 Calma 3 Este 0 -- -- 68
2019-09-27 01:00:00 16.1 0 Calma 4 Este 0 -- -- 64
2019-09-27 00:00:00 17.4 0 Calma 6 Noroeste 0 -- -- 59
2019-09-26 23:00:00 18.8 3 Noroeste 6 Noroeste 0 -- -- 53
2019-09-26 22:00:00 18.7 0 Calma 6 Sur 0 -- -- 54
2019-09-26 21:00:00 20.6 4 Sur 7 Sur 0 -- -- 48
2019-09-26 20:00:00 23.9 4 Sur 15 Sudoeste 0 -- -- 39
2019-09-26 19:00:00 25.2 8 Sur 19 Sur 0 -- -- 37
2019-09-26 18:00:00 25.5 6 Sur 19 Sur 0 -- -- 37
2019-09-26 17:00:00 25.3 3 Sudoeste 18 Sudoeste 0 -- -- 37
2019-09-26 16:00:00 24.4 5 Sur 14 Sur 0 -- -- 41
2019-09-26 15:00:00 24.7 6 Sudoeste 15 Sudoeste 0 -- -- 40
2019-09-26 14:00:00 23.8 5 Sur 13 Sur 0 -- -- 41
2019-09-26 13:00:00 22.4 4 Sudeste 9 Sudeste 0 -- -- 46
2019-09-26 12:00:00 20.9 5 Sudeste 12 Sudeste 0 -- -- 54
2019-09-26 11:00:00 18.7 5 Sudeste 9 Sudeste 0 -- -- 57
2019-09-26 10:00:00 15.7 4 Este 8 Nordeste 0 -- -- 69
2019-09-26 09:00:00 13.2 3 Este 7 Nordeste 0 -- -- 75
2019-09-26 08:00:00 12.2 0 Calma 4 Este 0 -- -- 78
2019-09-26 07:00:00 12 0 Calma 6 Este 0 -- -- 80
2019-09-26 06:00:00 12.5 0 Calma 6 Nordeste 0 -- -- 77
2019-09-26 05:00:00 12.8 3 Nordeste 5 Este 0 -- -- 77
2019-09-26 04:00:00 13.3 2 Este 10 Nordeste 0 -- -- 76
2019-09-26 03:00:00 14.1 4 Nordeste 7 Nordeste 0 -- -- 72
2019-09-26 02:00:00 14 3 Este 9 Nordeste 0 -- -- 74
2019-09-26 01:00:00 13.3 2 Este 5 Sudeste 0 -- -- 76
2019-09-26 00:00:00 14.1 0 Calma 6 Sudeste 0 -- -- 73
2019-09-25 23:00:00 14.2 3 Este 5 Este 0 -- -- 81
2019-09-25 22:00:00 14.3 3 Sudeste 9 Nordeste 0 -- -- 84
2019-09-25 21:00:00 15.5 0 Calma 4 Sudeste 0 -- -- 80
2019-09-25 20:00:00 20.8 0 Calma 5 Sudeste 0 -- -- 48
2019-09-25 19:00:00 22.4 3 Sudeste 10 Sudeste 0 -- -- 42
2019-09-25 18:00:00 22.5 6 Sur 14 Sur 0 -- -- 41
2019-09-25 17:00:00 22.1 3 Sur 16 Sudeste 0 -- -- 42
2019-09-25 16:00:00 21.7 4 Sur 15 Sudeste 0 -- -- 45
2019-09-25 15:00:00 21.6 6 Sur 15 Sur 0 -- -- 44
2019-09-25 14:00:00 20.8 4 Sur 13 Sudoeste 0 -- -- 47
2019-09-25 13:00:00 19.6 2 Noroeste 12 Sur 0 -- -- 51
2019-09-25 12:00:00 18.8 4 Sudeste 14 Sur 0 -- -- 55
2019-09-25 11:00:00 17.2 4 Sur 14 Sur 0 -- -- 61
2019-09-25 10:00:00 15.1 5 Sur 12 Sur 0 -- -- 69
2019-09-25 09:00:00 12.8 0 Calma 4 Noroeste 0 -- -- 79
2019-09-25 08:00:00 12.3 0 Calma 10 Este 0 -- -- 79
2019-09-25 07:00:00 11.8 3 Sudeste 9 Sudeste 0 -- -- 81
2019-09-25 06:00:00 13.1 2 Sudeste 8 Sudoeste 0 -- -- 76
2019-09-25 05:00:00 14.2 2 Sudoeste 9 Sur 0 -- -- 75
2019-09-25 04:00:00 14.2 0 Calma 4 Sur 0 -- -- 75
2019-09-25 03:00:00 16 2 Noroeste 10 Oeste 0 -- -- 69
2019-09-25 02:00:00 16.9 0 Calma 13 Noroeste 0 -- -- 69
2019-09-25 01:00:00 17.2 3 Noroeste 11 Noroeste 0 -- -- 69
2019-09-25 00:00:00 17.7 0 Calma 5 Oeste 0 -- -- 73
2019-09-24 23:00:00 18.2 0 Calma 11 Sur 0 -- -- 74
2019-09-24 22:00:00 18.1 0 Calma 9 Noroeste 0 -- -- 78
2019-09-24 21:00:00 18.3 0 Calma 11 Noroeste 0 -- -- 83
2019-09-24 20:00:00 23.2 2 Oeste 16 Sudoeste 0 -- -- 58
2019-09-24 19:00:00 25.2 4 Oeste 17 Sudoeste 0 -- -- 46
2019-09-24 18:00:00 25.2 7 Sudoeste 20 Sur 0 -- -- 41
2019-09-24 17:00:00 25.2 5 Sudoeste 23 Sur 0 -- -- 39
2019-09-24 16:00:00 24.8 5 Sudoeste 21 Sudoeste 0 -- -- 43
2019-09-24 15:00:00 24.5 6 Sudoeste 25 Sur 0 -- -- 42
2019-09-24 14:00:00 23 5 Sudoeste 16 Sur 0 -- -- 46
2019-09-24 13:00:00 20.9 6 Sudoeste 17 Sudoeste 0 -- -- 53
2019-09-24 12:00:00 17.7 3 Sudoeste 13 Sur 0 -- -- 68
2019-09-24 11:00:00 14.6 3 Sudoeste 9 Sur 0 -- -- 85
2019-09-24 10:00:00 12.4 4 Sudeste 6 Sudeste 0 -- -- 98
2019-09-24 09:00:00 11.2 2 Sudeste 4 Este 0 -- -- 98
2019-09-24 08:00:00 10.5 0 Calma 5 Sudeste 0 -- -- 89
2019-09-24 07:00:00 10 0 Calma 4 Sur 0 -- -- 86
2019-09-24 06:00:00 10.6 0 Calma 2 Sudoeste 0 -- -- 84
2019-09-24 05:00:00 11.4 0 Calma 4 Sudoeste 0 -- -- 81
2019-09-24 04:00:00 11.7 0 Calma 3 Sudoeste 0 -- -- 78
2019-09-24 03:00:00 11.9 0 Calma 3 Sudoeste 0 -- -- 76
2019-09-24 02:00:00 12.8 0 Calma 3 Sudoeste 0 -- -- 73
2019-09-24 01:00:00 13.5 0 Calma 2 Sur 0 -- -- 67
2019-09-24 00:00:00 13.1 0 Calma 2 Sur 0 -- -- 69
2019-09-23 23:00:00 13.6 0 Calma 4 Sudoeste 0 -- -- 66
2019-09-23 22:00:00 13.3 0 Calma 4 Sur 0 -- -- 78
2019-09-23 21:00:00 15.2 0 Calma 6 Sudoeste 0 -- -- 85
2019-09-23 20:00:00 20.1 2 Sur 11 Sudoeste 0 -- -- 47
2019-09-23 19:00:00 21.5 6 Sur 14 Sudeste 0 -- -- 45
2019-09-23 18:00:00 21.8 2 Sudoeste 18 Sudeste 0 -- -- 46
2019-09-23 17:00:00 21.7 7 Sur 24 Sur 0 -- -- 45
2019-09-23 16:00:00 21.2 3 Oeste 18 Sur 0 -- -- 50
2019-09-23 15:00:00 20.6 3 Sudoeste 21 Sudoeste 0 -- -- 53
2019-09-23 14:00:00 19.8 6 Sudoeste 16 Sur 0 -- -- 55
2019-09-23 13:00:00 18.4 4 Sur 10 Sudoeste 0 -- -- 61
2019-09-23 12:00:00 16.3 5 Este 13 Sudeste 0 -- -- 71
2019-09-23 11:00:00 13.3 4 Sudeste 7 Este 0 -- -- 86
2019-09-23 10:00:00 11.4 3 Sudeste 5 Este 0 -- -- 98
2019-09-23 09:00:00 10.1 2 Este 6 Este 0 -- -- 97
2019-09-23 08:00:00 9.9 0 Calma 4 Sudeste 0 -- -- 86
2019-09-23 07:00:00 9.8 0 Calma 4 Sudeste 0 -- -- 88
2019-09-23 06:00:00 9.7 0 Calma 3 Este 0 -- -- 88
2019-09-23 05:00:00 9.8 0 Calma 2 Sudeste 0 -- -- 86
2019-09-23 04:00:00 10.5 0 Calma 3 Norte 0 -- -- 83
2019-09-23 03:00:00 11.2 0 Calma 3 Noroeste 0 -- -- 82
2019-09-23 02:00:00 11.6 2 Sudoeste 5 Sudoeste 0 -- -- 79
2019-09-23 01:00:00 12.1 0 Calma 5 Sudoeste 0 -- -- 77
2019-09-23 00:00:00 13 0 Calma 6 Sur -- -- -- 73
2019-09-22 23:00:00 13.6 0 Calma 4 Oeste 0 -- -- 70
2019-09-22 22:00:00 12.9 0 Calma 10 Noroeste 0 -- -- 75
2019-09-22 21:00:00 14.3 5 Noroeste 15 Noroeste 0 -- -- 72
2019-09-22 20:00:00 18.6 7 Noroeste 27 Noroeste 0 -- -- 47
2019-09-22 19:00:00 20.4 6 Noroeste 23 Noroeste 0 -- -- 45
2019-09-22 18:00:00 21 7 Noroeste 30 Noroeste 0 -- -- 42
2019-09-22 17:00:00 21 4 Oeste 22 Noroeste 0 -- -- 44
2019-09-22 16:00:00 20.5 3 Oeste 28 Noroeste 0 -- -- 46
2019-09-22 15:00:00 19.8 3 Oeste 21 Noroeste 0 -- -- 50
2019-09-22 14:00:00 19.4 5 Noroeste 16 Noroeste 0 -- -- 60
2019-09-22 13:00:00 18.3 3 Oeste 13 Sudoeste 0 -- -- 72
2019-09-22 12:00:00 16 3 Oeste 11 Sudoeste 0 -- -- 86
2019-09-22 11:00:00 14.8 2 Oeste 8 Oeste 0 -- -- 100
2019-09-22 10:00:00 13.8 0 Calma 10 Oeste 0.6 -- -- 100
2019-09-22 09:00:00 15.4 3 Sudoeste 13 Sudoeste 0.8 -- -- 100
2019-09-22 08:00:00 15.3 3 Sudoeste 11 Sudoeste 0 -- -- 99
2019-09-22 07:00:00 15.4 0 Calma 8 Sur 2.8 -- -- 99
2019-09-22 06:00:00 15.4 0 Calma 6 Sur 0.2 -- -- 99
2019-09-22 05:00:00 15.3 3 Oeste 13 Noroeste 0.4 -- -- 98
2019-09-22 04:00:00 15.5 0 Calma 10 Oeste 0.2 -- -- 96
2019-09-22 03:00:00 15.4 0 Calma 2 Norte 0 -- -- 98
2019-09-22 02:00:00 15.3 0 Calma 5 Sur 0 -- -- 98
2019-09-22 01:00:00 15.2 0 Calma 5 Sur 0 -- -- 99
2019-09-22 00:00:00 15.7 0 Calma 3 Noroeste 0 -- -- 99
2019-09-21 23:00:00 15.6 0 Calma 4 Sudoeste 0 -- -- 99
2019-09-21 22:00:00 16 2 Noroeste 6 Noroeste 0 -- -- 99
2019-09-21 21:00:00 16.2 0 Calma 8 Noroeste 0 -- -- 97
2019-09-21 20:00:00 16.9 3 Noroeste 7 Noroeste 0 -- -- 93
2019-09-21 19:00:00 17.6 0 Calma 7 Sudoeste 0.2 -- -- 90
2019-09-21 18:00:00 18.9 3 Sudoeste 12 Sudoeste 0 -- -- 80
2019-09-21 17:00:00 19.2 0 Calma 6 Sudoeste 0 -- -- 74
2019-09-21 16:00:00 18.9 3 Sudoeste 8 Sudoeste 0.2 -- -- 76
2019-09-21 15:00:00 19 3 Sudoeste 9 Sudoeste 0 -- -- 72
2019-09-21 14:00:00 18.6 3 Oeste 16 Sur 0 -- -- 73
2019-09-21 13:00:00 17.7 2 Sudoeste 11 Sudoeste 0 -- -- 80
2019-09-21 12:00:00 17.2 4 Sur 11 Sur 0 -- -- 84
2019-09-21 11:00:00 16 3 Sudoeste 10 Sur 0 -- -- 95
2019-09-21 10:00:00 16 3 Sudeste 8 Sur 0 -- -- 99
2019-09-21 09:00:00 14.8 0 Calma 4 Sur 0 -- -- 99
2019-09-21 08:00:00 14 0 Calma 9 Norte 0 -- -- 96
2019-09-21 07:00:00 14.2 0 Calma 3 Este 0 -- -- 96
2019-09-21 06:00:00 14.5 0 Calma 3 Este 0 -- -- 94
2019-09-21 05:00:00 15.1 0 Calma 4 Sudeste 0 -- -- 95
2019-09-21 04:00:00 15.4 2 Este 4 Este 0 -- -- 95
2019-09-21 03:00:00 15.2 2 Este 5 Este 0.4 -- -- 94
2019-09-21 02:00:00 15.2 3 Este 12 Nordeste 1.8 -- -- 93
2019-09-21 01:00:00 15.7 4 Este 15 Nordeste 1.6 -- -- 93
2019-09-21 00:00:00 16.1 3 Este 8 Sudeste 0 -- -- 92
2019-09-20 23:00:00 16.3 2 Sudeste 17 Sudeste 2.2 -- -- 90
2019-09-20 22:00:00 16.2 7 Sudeste 45 Sur 6.6 -- -- 89
2019-09-20 21:00:00 22.6 9 Sur 22 Sur 0 -- -- 58
2019-09-20 20:00:00 22.9 8 Sur 30 Sur 0 -- -- 58
2019-09-20 19:00:00 23.7 11 Sudeste 25 Sudeste 0 -- -- 57
2019-09-20 18:00:00 24.1 9 Sudeste 18 Sudeste 0 -- -- 54
2019-09-20 17:00:00 23.7 11 Sudeste 22 Sudeste 0 -- -- 58
2019-09-20 16:00:00 23.5 9 Sudeste 23 Sudeste 0 -- -- 59
2019-09-20 15:00:00 22.7 6 Sudeste 19 Sudeste 0 -- -- 63
2019-09-20 14:00:00 22.2 5 Sudeste 18 Sudeste 0 -- -- 66
2019-09-20 13:00:00 21.4 6 Este 17 Este 0 -- -- 71
2019-09-20 12:00:00 20.2 5 Sudeste 20 Sudeste 0 -- -- 73
2019-09-20 11:00:00 19.8 9 Sudeste 21 Sudeste 0 -- -- 74
2019-09-20 10:00:00 18 7 Sudeste 16 Sudeste 0 -- -- 80
2019-09-20 09:00:00 16.1 3 Sudeste 6 Este 0 -- -- 85
2019-09-20 08:00:00 15.9 3 Sudeste 8 Nordeste 0 -- -- 84
2019-09-20 07:00:00 16 2 Este 8 Este 0 -- -- 83
2019-09-20 06:00:00 15.9 2 Este 5 Este 0 -- -- 84
2019-09-20 05:00:00 16 2 Este 5 Nordeste 0 -- -- 83
2019-09-20 04:00:00 16 0 Calma 5 Este 0 -- -- 83
2019-09-20 03:00:00 16.1 2 Este 6 Nordeste 0 -- -- 84
2019-09-20 02:00:00 16.2 2 Este 6 Este 0 -- -- 85
2019-09-20 01:00:00 16.3 3 Este 7 Sudeste 0 -- -- 86
2019-09-20 00:00:00 16.5 2 Este 12 Este 0 -- -- 85